createdAt,value
2017-11-01T00:00:25.599Z,42.87
2017-11-01T00:02:55.385Z,45.50
2017-11-01T00:05:24.567Z,42.83
2017-11-01T00:07:53.825Z,40.97
2017-11-01T00:10:23.989Z,39.77
2017-11-01T00:12:53.192Z,38.67
2017-11-01T00:15:22.538Z,41.63
2017-11-01T00:17:55.000Z,36.47
2017-11-01T00:20:24.232Z,33.83
2017-11-01T00:22:54.233Z,35.30
2017-11-01T00:25:24.769Z,32.70
2017-11-01T00:27:54.009Z,37.30
2017-11-01T00:30:23.313Z,31.90
2017-11-01T00:32:53.711Z,34.10
2017-11-01T00:35:23.781Z,37.77
2017-11-01T00:37:52.995Z,38.60
2017-11-01T00:40:22.271Z,46.53
2017-11-01T00:42:52.167Z,36.93
2017-11-01T00:45:21.362Z,35.67
2017-11-01T00:47:52.529Z,38.40
2017-11-01T00:50:21.678Z,35.50
2017-11-01T00:52:50.867Z,34.17
2017-11-01T00:55:20.405Z,34.97
2017-11-01T00:57:49.550Z,30.83
2017-11-01T01:00:19.616Z,36.63
2017-11-01T01:02:49.413Z,35.33
2017-11-01T01:05:18.573Z,30.70
2017-11-01T01:07:47.724Z,34.97
2017-11-01T01:10:17.688Z,28.00
2017-11-01T01:12:46.841Z,34.60
2017-11-01T01:15:16.005Z,33.20
2017-11-01T01:17:45.621Z,28.80
2017-11-01T01:20:16.179Z,32.77
2017-11-01T01:22:45.423Z,29.37
2017-11-01T01:25:14.811Z,26.53
2017-11-01T01:27:44.074Z,28.27
2017-11-01T01:30:14.268Z,29.30
2017-11-01T01:32:43.580Z,28.17
2017-11-01T01:35:13.106Z,33.53
2017-11-01T01:37:42.387Z,23.10
2017-11-01T01:40:12.256Z,26.43
2017-11-01T01:42:41.818Z,23.50
2017-11-01T01:45:11.858Z,28.80
2017-11-01T01:47:42.032Z,23.07
2017-11-01T01:50:12.653Z,24.17
2017-11-01T01:52:41.920Z,24.33
2017-11-01T01:55:13.564Z,22.03
2017-11-01T01:57:42.746Z,25.10
2017-11-01T02:00:12.039Z,20.83
2017-11-01T02:02:42.050Z,25.97
2017-11-01T02:05:11.362Z,21.23
2017-11-01T02:07:40.859Z,22.53
2017-11-01T02:10:10.582Z,25.57
2017-11-01T02:12:39.775Z,21.63
2017-11-01T02:15:08.960Z,19.73
2017-11-01T02:17:39.074Z,18.73
2017-11-01T02:20:08.370Z,23.60
2017-11-01T02:22:38.385Z,18.07
2017-11-01T02:25:07.661Z,14.43
2017-11-01T02:27:36.851Z,18.73
2017-11-01T02:30:06.023Z,16.30
2017-11-01T02:32:35.282Z,18.60
2017-11-01T02:35:04.575Z,16.43
2017-11-01T02:37:33.803Z,17.50
2017-11-01T02:40:03.228Z,15.90
2017-11-01T02:42:32.527Z,16.57
2017-11-01T02:45:02.571Z,20.37
2017-11-01T02:47:31.797Z,21.80
2017-11-01T02:50:01.227Z,19.30
2017-11-01T02:52:30.466Z,22.57
2017-11-01T02:55:00.638Z,17.80
2017-11-01T02:57:30.088Z,24.10
2017-11-01T03:00:01.938Z,21.40
2017-11-01T03:02:34.783Z,19.73
2017-11-01T03:05:06.279Z,22.17
2017-11-01T03:07:35.503Z,18.37
2017-11-01T03:10:04.682Z,25.80
2017-11-01T03:12:34.025Z,19.80
2017-11-01T03:15:03.226Z,20.60
2017-11-01T03:17:33.286Z,22.47
2017-11-01T03:20:02.614Z,18.57
2017-11-01T03:22:31.849Z,21.47
2017-11-01T03:25:01.124Z,17.83
2017-11-01T03:27:30.408Z,22.67
2017-11-01T03:30:00.457Z,19.20
2017-11-01T03:32:29.726Z,19.20
2017-11-01T03:35:00.303Z,29.30
2017-11-01T03:37:29.722Z,22.20
2017-11-01T03:39:59.782Z,23.67
2017-11-01T03:42:29.495Z,26.87
2017-11-01T03:44:58.764Z,26.57
2017-11-01T03:47:28.810Z,27.30
2017-11-01T03:49:59.040Z,23.33
2017-11-01T03:52:28.360Z,24.00
2017-11-01T03:54:57.885Z,28.83
2017-11-01T03:57:27.984Z,26.70
2017-11-01T03:59:57.258Z,26.17
2017-11-01T04:02:26.513Z,23.37
2017-11-01T04:04:56.811Z,22.07
2017-11-01T04:07:26.240Z,23.07
2017-11-01T04:09:55.614Z,25.87
2017-11-01T04:12:25.813Z,30.60
2017-11-01T04:14:55.948Z,26.87
2017-11-01T04:17:26.279Z,22.67
2017-11-01T04:19:56.454Z,32.47
2017-11-01T04:22:25.761Z,33.83
2017-11-01T04:24:56.023Z,41.77
2017-11-01T04:27:25.378Z,31.83
2017-11-01T04:29:54.733Z,36.80
2017-11-01T04:32:24.424Z,28.83
2017-11-01T04:34:54.837Z,36.00
2017-11-01T04:37:24.065Z,45.27
2017-11-01T04:39:53.514Z,45.27
2017-11-01T04:42:22.721Z,39.70
2017-11-01T04:44:51.945Z,35.33
2017-11-01T04:47:21.254Z,38.77
2017-11-01T04:49:50.491Z,43.17
2017-11-01T04:52:19.773Z,37.60
2017-11-01T04:54:49.805Z,45.00
2017-11-01T04:57:19.122Z,37.73
2017-11-01T04:59:48.357Z,37.50
2017-11-01T05:05:15.348Z,39.30
2017-11-01T05:07:44.615Z,33.03
2017-11-01T05:10:16.488Z,44.07
2017-11-01T05:12:52.128Z,33.70
2017-11-01T05:15:21.366Z,62.70
2017-11-01T05:17:51.812Z,37.10
2017-11-01T05:20:22.810Z,43.70
2017-11-01T05:22:52.810Z,38.50
2017-11-01T05:25:23.932Z,43.00
2017-11-01T05:27:53.103Z,35.37
2017-11-01T05:30:22.309Z,30.27
2017-11-01T05:32:51.551Z,36.07
2017-11-01T05:35:21.719Z,48.33
2017-11-01T05:37:51.125Z,30.73
2017-11-01T05:40:21.120Z,24.67
2017-11-01T05:42:51.142Z,20.43
2017-11-01T05:45:20.431Z,20.00
2017-11-01T05:47:49.747Z,18.83
2017-11-01T05:50:19.375Z,17.40
2017-11-01T05:52:48.579Z,14.63
2017-11-01T05:55:17.894Z,16.67
2017-11-01T05:57:47.069Z,20.03
2017-11-01T06:00:16.303Z,10.20
2017-11-01T06:02:45.589Z,13.60
2017-11-01T06:05:14.819Z,20.13
2017-11-01T06:07:47.919Z,10.77
2017-11-01T06:10:17.179Z,11.70
2017-11-01T06:12:46.361Z,20.83
2017-11-01T06:15:15.597Z,21.77
2017-11-01T06:17:46.710Z,14.40
2017-11-01T06:20:15.908Z,18.50
2017-11-01T06:22:45.342Z,18.93
2017-11-01T06:25:14.541Z,17.13
2017-11-01T06:27:43.873Z,13.93
2017-11-01T06:30:14.215Z,22.93
2017-11-01T06:32:44.489Z,16.83
2017-11-01T06:35:13.705Z,16.07
2017-11-01T06:37:44.695Z,18.53
2017-11-01T06:40:13.972Z,11.83
2017-11-01T06:42:43.227Z,12.87
2017-11-01T06:45:13.150Z,13.00
2017-11-01T06:47:43.095Z,9.63
2017-11-01T06:50:12.503Z,10.63
2017-11-01T06:52:43.046Z,13.40
2017-11-01T06:55:12.311Z,13.00
2017-11-01T06:57:41.473Z,14.67
2017-11-01T07:00:13.099Z,20.13
2017-11-01T07:02:44.288Z,17.37
2017-11-01T07:05:22.758Z,28.63
2017-11-01T07:07:52.255Z,12.97
2017-11-01T07:10:21.521Z,20.63
2017-11-01T07:12:50.756Z,24.43
2017-11-01T07:15:19.966Z,14.70
2017-11-01T07:17:49.158Z,20.70
2017-11-01T07:20:20.187Z,17.97
2017-11-01T07:22:49.414Z,20.60
2017-11-01T07:25:20.317Z,22.20
2017-11-01T07:27:49.484Z,23.90
2017-11-01T07:30:19.471Z,16.40
2017-11-01T07:32:49.444Z,14.93
2017-11-01T07:35:19.405Z,19.67
2017-11-01T07:37:48.573Z,16.80
2017-11-01T07:40:17.848Z,18.47
2017-11-01T07:42:48.526Z,9.50
2017-11-01T07:45:17.729Z,22.60
2017-11-01T07:47:47.572Z,21.87
2017-11-01T07:50:17.569Z,10.67
2017-11-01T07:52:46.847Z,21.30
2017-11-01T07:55:16.332Z,17.00
2017-11-01T07:57:46.188Z,10.90
2017-11-01T08:00:15.366Z,13.10
2017-11-01T08:02:45.327Z,21.47
2017-11-01T08:05:14.477Z,19.87
2017-11-01T08:07:43.646Z,10.60
2017-11-01T08:10:12.868Z,12.13
2017-11-01T08:12:42.004Z,11.10
2017-11-01T08:15:11.176Z,13.77
2017-11-01T08:17:40.997Z,7.80
2017-11-01T08:20:10.149Z,9.10
2017-11-01T08:22:39.314Z,12.93
2017-11-01T08:25:09.325Z,13.77
2017-11-01T08:27:39.241Z,16.47
2017-11-01T08:30:08.427Z,16.13
2017-11-01T08:32:39.506Z,12.87
2017-11-01T08:35:09.408Z,11.63
2017-11-01T08:37:38.697Z,11.10
2017-11-01T08:40:08.789Z,15.63
2017-11-01T08:42:38.741Z,11.60
2017-11-01T08:45:08.015Z,19.40
2017-11-01T08:47:37.259Z,11.27
2017-11-01T08:50:06.585Z,15.80
2017-11-01T08:52:35.903Z,12.70
2017-11-01T08:55:05.258Z,10.07
2017-11-01T08:57:34.557Z,8.93
2017-11-01T09:00:03.951Z,12.83
2017-11-01T09:02:33.323Z,13.20
2017-11-01T09:05:03.389Z,15.67
2017-11-01T09:07:33.130Z,13.63
2017-11-01T09:10:02.999Z,18.47
2017-11-01T09:12:38.771Z,16.10
2017-11-01T09:15:08.005Z,26.30
2017-11-01T09:17:42.330Z,27.17
2017-11-01T09:20:14.794Z,19.93
2017-11-01T09:22:44.770Z,17.47
2017-11-01T09:25:14.019Z,20.03
2017-11-01T09:27:44.097Z,21.20
2017-11-01T09:30:13.462Z,23.90
2017-11-01T09:32:43.746Z,22.77
2017-11-01T09:35:13.278Z,16.00
2017-11-01T09:37:42.672Z,29.93
2017-11-01T09:40:11.923Z,35.33
2017-11-01T09:42:41.120Z,30.60
2017-11-01T09:45:10.287Z,30.43
2017-11-01T09:47:39.463Z,32.83
2017-11-01T09:50:09.868Z,31.53
2017-11-01T09:52:39.294Z,20.73
2017-11-01T09:55:08.506Z,22.37
2017-11-01T09:57:37.872Z,27.37
2017-11-01T10:00:07.070Z,21.90
2017-11-01T10:02:36.284Z,18.43
2017-11-01T10:05:05.574Z,25.83
2017-11-01T10:07:35.842Z,17.50
2017-11-01T10:10:05.096Z,14.97
2017-11-01T10:12:35.159Z,26.70
2017-11-01T10:15:04.550Z,22.73
2017-11-01T10:17:33.760Z,21.67
2017-11-01T10:20:03.509Z,18.60
2017-11-01T10:22:33.071Z,26.90
2017-11-01T10:25:02.548Z,23.30
2017-11-01T10:27:32.133Z,33.33
2017-11-01T10:30:02.595Z,25.87
2017-11-01T10:32:31.970Z,28.33
2017-11-01T10:35:02.018Z,28.83
2017-11-01T10:37:31.883Z,36.43
2017-11-01T10:40:01.823Z,31.67
2017-11-01T10:42:32.015Z,17.27
2017-11-01T10:45:02.125Z,28.40
2017-11-01T10:47:32.313Z,35.97
2017-11-01T10:50:01.802Z,38.20
2017-11-01T10:52:31.059Z,39.53
2017-11-01T10:55:02.087Z,26.73
2017-11-01T10:57:31.325Z,40.77
2017-11-01T11:00:00.716Z,51.30
2017-11-01T11:02:30.017Z,55.03
2017-11-01T11:05:01.160Z,57.43
2017-11-01T11:07:31.290Z,48.60
2017-11-01T11:10:00.604Z,44.97
2017-11-01T11:12:29.935Z,63.80
2017-11-01T11:14:59.917Z,56.37
2017-11-01T11:17:29.957Z,50.90
2017-11-01T11:19:59.479Z,52.10
2017-11-01T11:22:38.642Z,59.37
2017-11-01T11:25:07.898Z,68.17
2017-11-01T11:27:37.151Z,91.53
2017-11-01T11:30:07.216Z,59.40
2017-11-01T11:32:36.458Z,70.10
2017-11-01T11:35:10.806Z,55.80
2017-11-01T11:37:40.480Z,59.27
2017-11-01T11:40:12.925Z,78.70
2017-11-01T11:42:42.200Z,71.87
2017-11-01T11:45:11.514Z,65.77
2017-11-01T11:47:42.351Z,79.37
2017-11-01T11:50:11.598Z,69.20
2017-11-01T11:52:40.827Z,70.83
2017-11-01T11:55:11.123Z,84.97
2017-11-01T11:57:40.484Z,71.83
2017-11-01T12:00:09.738Z,66.43
2017-11-01T12:02:40.586Z,60.87
2017-11-01T12:05:10.063Z,74.67
2017-11-01T12:07:44.203Z,68.57
2017-11-01T12:10:13.884Z,53.13
2017-11-01T12:12:44.459Z,64.27
2017-11-01T12:15:15.122Z,70.07
2017-11-01T12:17:48.783Z,69.80
2017-11-01T12:20:18.295Z,83.10
2017-11-01T12:22:47.771Z,85.43
2017-11-01T12:25:17.422Z,67.23
2017-11-01T12:27:47.397Z,57.50
2017-11-01T12:30:17.695Z,64.50
2017-11-01T12:32:47.211Z,46.60
2017-11-01T12:35:17.037Z,69.33
2017-11-01T12:37:46.231Z,76.13
2017-11-01T12:40:16.277Z,62.10
2017-11-01T12:42:45.926Z,62.40
2017-11-01T12:45:15.173Z,54.60
2017-11-01T12:47:44.498Z,70.00
2017-11-01T12:50:13.781Z,49.53
2017-11-01T12:52:43.057Z,61.00
2017-11-01T12:55:15.385Z,68.17
2017-11-01T12:57:45.952Z,58.13
2017-11-01T13:00:15.923Z,52.30
2017-11-01T13:02:45.258Z,57.77
2017-11-01T13:05:14.543Z,72.83
2017-11-01T13:07:43.750Z,81.07
2017-11-01T13:10:12.934Z,61.10
2017-11-01T13:12:42.649Z,51.70
2017-11-01T13:15:12.255Z,56.27
2017-11-01T13:17:43.723Z,53.10
2017-11-01T13:20:13.163Z,66.20
2017-11-01T13:22:45.808Z,71.47
2017-11-01T13:25:15.375Z,49.33
2017-11-01T13:27:44.790Z,61.83
2017-11-01T13:30:14.196Z,61.23
2017-11-01T13:32:44.237Z,55.47
2017-11-01T13:35:14.600Z,65.47
2017-11-01T13:37:46.231Z,53.37
2017-11-01T13:40:18.412Z,53.93
2017-11-01T13:42:48.505Z,43.50
2017-11-01T13:45:18.705Z,59.67
2017-11-01T13:47:48.913Z,49.00
2017-11-01T13:50:19.411Z,50.97
2017-11-01T13:52:49.890Z,46.70
2017-11-01T13:55:19.197Z,55.27
2017-11-01T13:57:48.461Z,47.67
2017-11-01T14:00:19.455Z,63.90
2017-11-01T14:02:48.700Z,54.13
2017-11-01T14:05:18.663Z,47.37
2017-11-01T14:07:48.642Z,49.53
2017-11-01T14:10:17.877Z,79.43
2017-11-01T14:12:49.227Z,60.43
2017-11-01T14:15:20.297Z,56.37
2017-11-01T14:17:49.548Z,46.10
2017-11-01T14:20:19.413Z,38.67
2017-11-01T14:22:49.148Z,38.97
2017-11-01T14:25:21.167Z,55.87
2017-11-01T14:27:50.918Z,51.77
2017-11-01T14:30:20.594Z,47.73
2017-11-01T14:32:50.683Z,56.50
2017-11-01T14:35:19.865Z,41.40
2017-11-01T14:37:49.876Z,58.37
2017-11-01T14:40:20.061Z,48.00
2017-11-01T14:42:49.322Z,66.70
2017-11-01T14:45:18.977Z,56.13
2017-11-01T14:47:49.195Z,57.63
2017-11-01T14:50:18.406Z,58.27
2017-11-01T14:52:48.042Z,66.90
2017-11-01T14:55:17.513Z,55.83
2017-11-01T14:57:47.076Z,53.93
2017-11-01T15:00:16.977Z,43.90
2017-11-01T15:02:46.414Z,40.87
2017-11-01T15:05:16.098Z,53.70
2017-11-01T15:07:47.621Z,65.37
2017-11-01T15:10:21.496Z,57.10
2017-11-01T15:12:50.816Z,34.57
2017-11-01T15:15:22.499Z,57.07
2017-11-01T15:17:52.688Z,55.20
2017-11-01T15:20:22.280Z,46.87
2017-11-01T15:22:54.120Z,52.03
2017-11-01T15:25:24.204Z,50.53
2017-11-01T15:27:54.000Z,48.20
2017-11-01T15:30:24.372Z,41.90
2017-11-01T15:32:54.143Z,44.43
2017-11-01T15:35:23.750Z,37.43
2017-11-01T15:37:55.464Z,28.73
2017-11-01T15:40:26.369Z,35.13
2017-11-01T15:42:57.158Z,47.57
2017-11-01T15:45:27.192Z,34.17
2017-11-01T15:47:57.239Z,59.50
2017-11-01T15:50:27.366Z,51.60
2017-11-01T15:52:56.974Z,64.50
2017-11-01T15:55:26.878Z,46.93
2017-11-01T15:57:56.821Z,52.47
2017-11-01T16:00:27.526Z,46.63
2017-11-01T16:03:01.414Z,83.30
2017-11-01T16:05:34.801Z,66.67
2017-11-01T16:08:05.205Z,58.93
2017-11-01T16:10:37.247Z,50.80
2017-11-01T16:13:07.893Z,59.07
2017-11-01T16:15:37.718Z,61.17
2017-11-01T16:18:08.416Z,86.10
2017-11-01T16:20:40.489Z,60.93
2017-11-01T16:23:11.275Z,57.07
2017-11-01T16:25:41.002Z,58.73
2017-11-01T16:28:10.356Z,67.97
2017-11-01T16:30:40.843Z,44.77
2017-11-01T16:33:17.388Z,44.03
2017-11-01T16:35:48.225Z,54.23
2017-11-01T16:38:18.733Z,50.50
2017-11-01T16:40:48.187Z,66.87
2017-11-01T16:43:18.296Z,76.23
2017-11-01T16:48:23.973Z,69.03
2017-11-01T16:50:55.574Z,64.50
2017-11-01T16:53:26.261Z,67.40
2017-11-01T16:55:58.241Z,66.17
2017-11-01T16:58:32.729Z,61.40
2017-11-01T17:01:02.055Z,64.07
2017-11-01T17:03:31.963Z,57.73
2017-11-01T17:06:01.569Z,68.53
2017-11-01T17:08:31.388Z,84.63
2017-11-01T17:11:01.252Z,72.57
2017-11-01T17:13:31.070Z,62.50
2017-11-01T17:16:03.077Z,56.07
2017-11-01T17:18:33.668Z,61.23
2017-11-01T17:21:04.573Z,57.57
2017-11-01T17:23:35.346Z,56.77
2017-11-01T17:26:07.117Z,63.00
2017-11-01T17:28:39.321Z,51.70
2017-11-01T17:31:09.985Z,74.20
2017-11-01T17:33:42.021Z,58.10
2017-11-01T17:36:13.916Z,52.83
2017-11-01T17:38:44.688Z,51.97
2017-11-01T17:41:19.099Z,55.13
2017-11-01T17:43:51.324Z,45.80
2017-11-01T17:46:21.790Z,42.23
2017-11-01T17:48:52.075Z,61.70
2017-11-01T17:51:23.275Z,51.87
2017-11-01T17:53:53.860Z,56.57
2017-11-01T17:56:29.175Z,42.87
2017-11-01T17:58:58.703Z,67.73
2017-11-01T18:01:35.315Z,60.73
2017-11-01T18:04:05.552Z,51.53
2017-11-01T18:06:34.957Z,35.90
2017-11-01T18:09:04.663Z,53.60
2017-11-01T18:11:36.540Z,55.27
2017-11-01T18:14:09.090Z,46.37
2017-11-01T18:16:40.125Z,41.87
2017-11-01T18:19:11.671Z,49.00
2017-11-01T18:21:42.058Z,42.47
2017-11-01T18:24:11.698Z,35.47
2017-11-01T18:26:42.153Z,42.30
2017-11-01T18:29:11.659Z,46.10
2017-11-01T18:31:41.414Z,49.17
2017-11-01T18:34:12.224Z,51.17
2017-11-01T18:36:42.323Z,42.50
2017-11-01T18:39:12.472Z,44.40
2017-11-01T18:41:42.627Z,36.53
2017-11-01T18:44:12.527Z,47.50
2017-11-01T18:46:45.429Z,52.93
2017-11-01T18:49:15.176Z,49.90
2017-11-01T18:51:46.035Z,40.77
2017-11-01T18:54:15.381Z,36.00
2017-11-01T18:56:45.716Z,39.33
2017-11-01T18:59:15.785Z,32.83
2017-11-01T19:01:45.940Z,46.13
2017-11-01T19:04:15.153Z,39.23
2017-11-01T19:06:45.529Z,28.17
2017-11-01T19:09:14.994Z,36.70
2017-11-01T19:11:44.261Z,43.60
2017-11-01T19:14:15.968Z,48.03
2017-11-01T19:16:45.213Z,40.57
2017-11-01T19:19:14.403Z,38.50
2017-11-01T19:21:45.010Z,28.60
2017-11-01T19:24:14.498Z,48.03
2017-11-01T19:26:47.274Z,45.17
2017-11-01T19:29:16.895Z,44.20
2017-11-01T19:31:46.121Z,33.43
2017-11-01T19:34:15.969Z,27.60
2017-11-01T19:36:45.221Z,32.93
2017-11-01T19:39:14.432Z,33.50
2017-11-01T19:41:44.075Z,37.20
2017-11-01T19:44:14.101Z,33.80
2017-11-01T19:46:44.071Z,41.70
2017-11-01T19:49:13.473Z,34.57
2017-11-01T19:51:52.350Z,40.57
2017-11-01T19:54:41.639Z,40.03
2017-11-01T19:57:24.372Z,26.33
2017-11-01T19:59:55.270Z,32.90
2017-11-01T20:02:26.746Z,26.20
2017-11-01T20:08:07.712Z,26.90
2017-11-01T20:10:48.987Z,25.60
2017-11-01T20:13:36.002Z,38.53
2017-11-01T20:16:06.057Z,31.87
2017-11-01T20:18:36.844Z,37.33
2017-11-01T20:21:12.356Z,27.53
2017-11-01T20:23:43.577Z,31.93
2017-11-01T20:26:20.690Z,29.60
2017-11-01T20:29:02.455Z,40.97
2017-11-01T20:31:40.874Z,28.70
2017-11-01T20:34:20.006Z,44.57
2017-11-01T20:36:51.018Z,27.80
2017-11-01T20:39:20.941Z,38.27
2017-11-01T20:41:52.478Z,30.77
2017-11-01T20:44:22.452Z,32.17
2017-11-01T20:46:52.713Z,28.23
2017-11-01T20:49:27.659Z,34.53
2017-11-01T20:51:57.915Z,47.60
2017-11-01T20:54:32.491Z,28.40
2017-11-01T20:57:03.546Z,21.87
2017-11-01T20:59:32.906Z,37.10
2017-11-01T21:02:02.442Z,31.17
2017-11-01T21:04:32.188Z,22.87
2017-11-01T21:07:03.254Z,27.60
2017-11-01T21:09:32.886Z,31.40
2017-11-01T21:12:02.109Z,32.73
2017-11-01T21:14:35.248Z,21.03
2017-11-01T21:17:05.300Z,26.80
2017-11-01T21:19:36.586Z,15.40
2017-11-01T21:22:06.496Z,25.97
2017-11-01T21:24:38.278Z,27.73
2017-11-01T21:27:29.687Z,14.40
2017-11-01T21:30:06.996Z,21.80
2017-11-01T21:32:37.557Z,15.60
2017-11-01T21:35:10.155Z,28.60
2017-11-01T21:37:42.306Z,27.83
2017-11-01T21:40:15.331Z,22.73
2017-11-01T21:42:49.197Z,25.65
2017-11-01T21:45:19.416Z,27.07
2017-11-01T21:47:48.713Z,14.93
2017-11-01T21:50:17.954Z,22.52
2017-11-01T21:52:49.001Z,31.17
2017-11-01T21:55:18.531Z,22.30
2017-11-01T21:57:47.834Z,21.27
2017-11-01T22:00:17.946Z,15.32
2017-11-01T22:02:47.617Z,30.00
2017-11-01T22:05:17.586Z,20.60
2017-11-01T22:07:48.278Z,27.02
2017-11-01T22:10:18.680Z,22.87
2017-11-01T22:12:47.910Z,25.40
2017-11-01T22:15:19.030Z,17.62
2017-11-01T22:17:48.445Z,23.62
2017-11-01T22:20:18.014Z,17.70
2017-11-01T22:22:48.668Z,28.25
2017-11-01T22:25:18.077Z,23.23
2017-11-01T22:27:52.291Z,21.53
2017-11-01T22:30:22.650Z,21.37
2017-11-01T22:32:52.833Z,25.10
2017-11-01T22:35:22.070Z,24.30
2017-11-01T22:37:51.549Z,17.00
2017-11-01T22:40:21.480Z,23.40
2017-11-01T22:42:50.937Z,19.87
2017-11-01T22:45:20.120Z,13.62
2017-11-01T22:47:51.595Z,34.08
2017-11-01T22:50:20.826Z,15.80
2017-11-01T22:52:50.525Z,22.13
2017-11-01T22:55:20.338Z,38.20
2017-11-01T22:57:49.932Z,27.27
2017-11-01T23:00:20.655Z,16.75
2017-11-01T23:02:50.707Z,23.73
2017-11-01T23:05:20.060Z,16.35
2017-11-01T23:07:50.965Z,13.60
2017-11-01T23:10:21.054Z,22.48
2017-11-01T23:12:50.508Z,16.20
2017-11-01T23:15:19.740Z,13.80
2017-11-01T23:17:48.963Z,23.65
2017-11-01T23:20:18.884Z,10.32
2017-11-01T23:22:48.067Z,24.25
2017-11-01T23:25:17.945Z,17.17
2017-11-01T23:27:47.206Z,17.70
2017-11-01T23:30:16.485Z,17.35
2017-11-01T23:32:45.831Z,8.47
2017-11-01T23:35:15.047Z,13.23
2017-11-01T23:37:45.205Z,24.00
2017-11-01T23:40:15.724Z,15.90
2017-11-01T23:42:44.937Z,23.55
2017-11-01T23:45:14.199Z,20.17
2017-11-01T23:47:44.738Z,20.73
2017-11-01T23:50:15.374Z,12.20
2017-11-01T23:52:46.735Z,14.00
2017-11-01T23:55:16.011Z,17.37
2017-11-01T23:57:45.195Z,16.00
